createdAt,value
2022-09-23T04:02:01.813Z,83.87
2022-09-23T04:06:13.386Z,83.59
2022-09-23T04:10:24.893Z,83.91
2022-09-23T04:14:36.346Z,83.43
2022-09-23T04:18:48.604Z,83.60
2022-09-23T04:23:00.023Z,83.55
2022-09-23T04:27:11.467Z,83.50
2022-09-23T04:31:23.784Z,83.36
2022-09-23T04:35:39.957Z,83.54
2022-09-23T04:39:51.734Z,83.80
2022-09-23T04:44:04.215Z,83.70
2022-09-23T04:48:16.101Z,84.14
2022-09-23T04:52:27.606Z,83.83
2022-09-23T04:56:39.715Z,83.48
2022-09-23T05:00:51.274Z,84.00
2022-09-23T05:05:02.812Z,83.42
2022-09-23T05:09:17.296Z,83.76
2022-09-23T05:13:28.749Z,84.06
2022-09-23T05:17:40.266Z,84.21
2022-09-23T05:21:51.694Z,83.83
2022-09-23T05:26:06.619Z,83.54
2022-09-23T05:30:18.038Z,83.65
2022-09-23T05:34:29.461Z,83.47
2022-09-23T05:38:41.045Z,83.41
2022-09-23T05:42:52.544Z,83.49
2022-09-23T05:47:04.206Z,83.19
2022-09-23T05:51:30.177Z,83.45
2022-09-23T05:55:42.322Z,82.58
2022-09-23T05:59:53.766Z,82.57
2022-09-23T06:04:07.586Z,82.95
2022-09-23T06:08:19.251Z,82.40
2022-09-23T06:12:31.418Z,82.48
2022-09-23T06:16:43.104Z,82.07
2022-09-23T06:20:54.592Z,81.92
2022-09-23T06:25:06.154Z,81.10
2022-09-23T06:29:18.314Z,81.29
2022-09-23T06:33:36.528Z,80.79
2022-09-23T06:37:48.811Z,80.65
2022-09-23T06:42:00.290Z,80.22
2022-09-23T06:46:15.644Z,80.67
2022-09-23T06:50:27.718Z,79.24
2022-09-23T06:54:39.223Z,79.19
2022-09-23T06:58:51.983Z,78.04
2022-09-23T07:03:10.076Z,72.07
2022-09-23T07:07:21.560Z,71.63
2022-09-23T07:11:33.271Z,72.01
2022-09-23T07:16:11.702Z,72.23
2022-09-23T07:20:23.428Z,73.06
2022-09-23T07:24:34.986Z,73.64
2022-09-23T07:28:46.499Z,74.63
2022-09-23T07:32:58.029Z,75.20
2022-09-23T07:37:10.532Z,75.65
2022-09-23T07:41:22.003Z,75.50
2022-09-23T07:45:34.105Z,76.07
2022-09-23T07:49:45.575Z,79.27
2022-09-23T07:53:57.170Z,79.00
2022-09-23T07:58:08.645Z,79.03
2022-09-23T08:02:20.214Z,80.75
2022-09-23T08:06:32.252Z,79.96
2022-09-23T08:10:43.743Z,80.93
2022-09-23T08:14:55.989Z,80.71
2022-09-23T08:19:08.406Z,81.88
2022-09-23T08:23:20.416Z,80.60
2022-09-23T08:27:32.922Z,81.16
2022-09-23T08:31:44.431Z,81.18
2022-09-23T08:36:00.836Z,81.41
2022-09-23T08:40:12.462Z,80.95
2022-09-23T08:44:51.111Z,80.72
2022-09-23T08:49:03.887Z,80.10
2022-09-23T08:53:24.712Z,78.71
2022-09-23T08:57:57.386Z,77.67
2022-09-23T09:02:22.257Z,76.56
2022-09-23T09:06:52.929Z,76.03
2022-09-23T09:11:06.402Z,75.50
2022-09-23T09:15:29.503Z,73.92
2022-09-23T09:19:57.290Z,73.95
2022-09-23T09:24:29.161Z,72.33
2022-09-23T09:28:52.211Z,71.74
2022-09-23T09:33:13.789Z,71.92
2022-09-23T09:37:33.568Z,70.82
2022-09-23T09:41:51.814Z,70.40
2022-09-23T09:46:03.272Z,69.36
2022-09-23T09:50:22.015Z,69.78
2022-09-23T09:54:33.485Z,69.64
2022-09-23T09:58:51.172Z,67.31
2022-09-23T10:03:40.550Z,67.51
2022-09-23T10:07:52.046Z,67.67
2022-09-23T10:12:13.050Z,66.09
2022-09-23T10:16:24.604Z,65.38
2022-09-23T10:20:38.196Z,65.68
2022-09-23T10:24:53.652Z,64.54
2022-09-23T10:29:23.835Z,62.37
2022-09-23T10:33:41.739Z,61.74
2022-09-23T10:37:55.343Z,61.35
2022-09-23T10:42:45.748Z,61.69
2022-09-23T10:47:14.530Z,59.07
2022-09-23T10:51:35.816Z,57.94
2022-09-23T10:56:09.481Z,58.22
2022-09-23T11:00:42.069Z,57.53
2022-09-23T11:05:15.284Z,56.60
2022-09-23T11:09:40.820Z,57.34
2022-09-23T11:14:17.147Z,55.16
2022-09-23T11:18:45.401Z,55.46
2022-09-23T11:23:15.079Z,53.27
2022-09-23T11:27:43.953Z,53.18
2022-09-23T11:32:23.060Z,50.81
2022-09-23T11:36:40.233Z,51.37
2022-09-23T11:41:02.379Z,50.90
2022-09-23T11:45:20.492Z,49.51
2022-09-23T11:49:39.308Z,48.38
2022-09-23T11:53:57.424Z,47.57
2022-09-23T11:58:25.155Z,47.41
2022-09-23T12:03:05.937Z,46.86
2022-09-23T12:07:29.002Z,47.00
2022-09-23T12:11:53.695Z,46.90
2022-09-23T12:16:22.902Z,47.00
2022-09-23T12:21:02.231Z,47.12
2022-09-23T12:25:29.332Z,47.41
2022-09-23T12:29:41.395Z,46.54
2022-09-23T12:33:54.138Z,44.81
2022-09-23T12:38:29.396Z,45.27
2022-09-23T12:42:45.796Z,44.73
2022-09-23T12:47:21.239Z,46.39
2022-09-23T12:51:34.756Z,47.09
2022-09-23T12:55:46.934Z,46.33
2022-09-23T13:00:14.247Z,45.96
2022-09-23T13:04:53.459Z,45.22
2022-09-23T13:09:28.690Z,45.82
2022-09-23T13:13:43.365Z,44.98
2022-09-23T13:18:20.350Z,45.21
2022-09-23T13:23:15.542Z,45.82
2022-09-23T13:27:31.427Z,44.64
2022-09-23T13:31:43.473Z,44.19
2022-09-23T13:36:01.474Z,44.97
2022-09-23T13:40:30.974Z,45.03
2022-09-23T13:44:42.594Z,44.56
2022-09-23T13:48:55.434Z,45.04
2022-09-23T13:53:20.389Z,45.63
2022-09-23T13:57:34.418Z,46.58
2022-09-23T14:01:47.005Z,47.40
2022-09-23T14:06:09.381Z,46.23
2022-09-23T14:10:26.578Z,46.20
2022-09-23T14:14:40.952Z,47.16
2022-09-23T14:18:57.382Z,50.39
2022-09-23T14:23:15.902Z,51.39
2022-09-23T14:27:30.815Z,53.80
2022-09-23T14:31:56.558Z,53.92
2022-09-23T14:36:31.324Z,54.64
2022-09-23T14:41:17.148Z,55.06
2022-09-23T14:45:34.653Z,55.46
2022-09-23T14:50:08.242Z,56.36
2022-09-23T14:54:26.522Z,56.64
2022-09-23T14:58:51.759Z,56.78
2022-09-23T15:03:14.599Z,56.67
2022-09-23T15:07:26.679Z,56.80
2022-09-23T15:11:39.871Z,57.65
2022-09-23T15:15:53.218Z,57.60
2022-09-23T15:20:17.919Z,58.36
2022-09-23T15:24:34.341Z,58.24
2022-09-23T15:28:47.212Z,57.96
2022-09-23T15:32:59.763Z,57.09
2022-09-23T15:37:12.597Z,57.17
2022-09-23T15:41:24.366Z,57.33
2022-09-23T15:45:45.582Z,57.53
2022-09-23T15:49:57.756Z,57.63
2022-09-23T15:54:12.310Z,58.55
2022-09-23T15:58:26.010Z,59.71
2022-09-23T16:02:37.545Z,60.61
2022-09-23T16:06:49.120Z,61.54
2022-09-23T16:11:00.620Z,60.89
2022-09-23T16:15:19.295Z,60.23
2022-09-23T16:19:35.368Z,58.83
2022-09-23T16:23:49.884Z,60.39
2022-09-23T16:28:03.077Z,61.45
2022-09-23T16:32:16.912Z,63.39
2022-09-23T16:36:34.206Z,65.12
2022-09-23T16:40:47.268Z,67.49
2022-09-23T16:44:58.978Z,68.95
2022-09-23T16:49:12.029Z,68.64
2022-09-23T16:53:23.762Z,67.51
2022-09-23T16:57:39.520Z,66.60
2022-09-23T17:02:09.853Z,65.49
2022-09-23T17:06:23.847Z,67.22
2022-09-23T17:10:35.339Z,67.71
2022-09-23T17:14:46.859Z,68.36
2022-09-23T17:18:59.370Z,70.21
2022-09-23T17:23:10.870Z,71.54
2022-09-23T17:27:24.786Z,72.67
2022-09-23T17:31:36.386Z,73.68
2022-09-23T17:35:47.889Z,76.54
2022-09-23T17:39:59.816Z,77.15
2022-09-23T17:44:11.492Z,75.82
2022-09-23T17:48:25.239Z,78.54
2022-09-23T17:52:36.806Z,78.85
2022-09-23T17:56:48.311Z,79.89
2022-09-23T18:01:00.924Z,80.40
2022-09-23T18:05:12.471Z,80.67
2022-09-23T18:09:24.124Z,81.25
2022-09-23T18:13:35.806Z,80.51
2022-09-23T18:17:47.297Z,81.25
2022-09-23T18:22:01.446Z,81.32
2022-09-23T18:26:17.015Z,82.39
2022-09-23T18:30:33.426Z,82.12
2022-09-23T18:34:44.962Z,82.03
2022-09-23T18:38:56.578Z,82.42
2022-09-23T18:43:08.485Z,82.08
2022-09-23T18:47:39.044Z,82.38
2022-09-23T18:51:53.611Z,82.31
2022-09-23T18:56:16.047Z,82.48
2022-09-23T19:00:28.163Z,82.52
2022-09-23T19:04:39.743Z,82.84
2022-09-23T19:08:53.610Z,83.08
2022-09-23T19:13:05.135Z,83.04
2022-09-23T19:17:16.685Z,83.30
2022-09-23T19:21:29.358Z,83.34
2022-09-23T19:25:40.952Z,84.30
2022-09-23T19:29:52.537Z,84.81
2022-09-23T19:34:12.376Z,84.28
2022-09-23T19:38:23.891Z,84.30
2022-09-23T19:42:35.928Z,84.78
2022-09-23T19:46:53.382Z,85.29
2022-09-23T19:51:07.698Z,85.14
2022-09-23T19:55:19.938Z,85.80
2022-09-23T19:59:31.469Z,85.25
2022-09-23T20:03:46.978Z,85.44
2022-09-23T20:08:01.926Z,85.97
2022-09-23T20:12:14.174Z,86.03
2022-09-23T20:16:26.629Z,85.94
2022-09-23T20:20:38.193Z,86.09
2022-09-23T20:24:49.680Z,86.42
2022-09-23T20:29:01.427Z,85.93
2022-09-23T20:33:15.867Z,86.19
2022-09-23T20:37:27.397Z,85.85
2022-09-23T20:41:39.607Z,86.24
2022-09-23T20:45:52.526Z,86.27
2022-09-23T20:50:04.280Z,86.26
2022-09-23T20:54:21.665Z,86.10
2022-09-23T20:58:37.115Z,86.37
2022-09-23T21:02:48.591Z,86.76
2022-09-23T21:07:01.003Z,86.75
2022-09-23T21:11:15.335Z,86.41
2022-09-23T21:15:27.869Z,86.68
2022-09-23T21:19:39.956Z,86.57
2022-09-23T21:23:51.476Z,86.89
2022-09-23T21:28:03.516Z,86.81
